createdAt,value
2018-10-01T00:00:54.469Z,13.30
2018-10-01T00:04:27.711Z,13.20
2018-10-01T00:08:01.313Z,14.40
2018-10-01T00:11:34.559Z,12.23
2018-10-01T00:15:07.767Z,14.33
2018-10-01T00:18:40.997Z,12.50
2018-10-01T00:22:19.531Z,13.50
2018-10-01T00:25:52.797Z,12.50
2018-10-01T00:29:26.026Z,14.33
2018-10-01T00:32:59.247Z,12.60
2018-10-01T00:36:32.459Z,13.83
2018-10-01T00:40:05.778Z,13.10
2018-10-01T00:43:38.996Z,12.63
2018-10-01T00:47:12.222Z,12.30
2018-10-01T00:50:45.451Z,13.63
2018-10-01T00:54:18.666Z,13.17
2018-10-01T00:57:51.889Z,14.10
2018-10-01T01:01:25.213Z,12.33
2018-10-01T01:04:58.575Z,12.77
2018-10-01T01:08:31.815Z,13.73
2018-10-01T01:12:05.091Z,12.97
2018-10-01T01:15:38.305Z,11.43
2018-10-01T01:19:11.510Z,12.40
2018-10-01T01:22:44.727Z,11.43
2018-10-01T01:26:17.940Z,12.80
2018-10-01T01:29:51.227Z,20.37
2018-10-01T01:33:24.448Z,18.50
2018-10-01T01:36:57.895Z,12.97
2018-10-01T01:40:31.135Z,12.20
2018-10-01T01:44:04.365Z,11.97
2018-10-01T01:47:37.562Z,11.70
2018-10-01T01:51:10.788Z,11.57
2018-10-01T01:54:43.994Z,10.57
2018-10-01T01:58:17.238Z,13.70
2018-10-01T02:01:50.440Z,11.83
2018-10-01T02:05:23.679Z,11.60
2018-10-01T02:08:56.904Z,10.37
2018-10-01T02:12:30.120Z,11.93
2018-10-01T02:16:03.383Z,10.60
2018-10-01T02:19:36.607Z,11.17
2018-10-01T02:23:09.824Z,12.50
2018-10-01T02:26:43.063Z,11.23
2018-10-01T02:30:16.274Z,11.23
2018-10-01T02:33:49.508Z,10.43
2018-10-01T02:37:22.709Z,11.10
2018-10-01T02:40:55.947Z,10.63
2018-10-01T02:44:29.160Z,12.00
2018-10-01T02:48:02.379Z,10.70
2018-10-01T02:51:41.184Z,11.07
2018-10-01T02:55:14.403Z,10.67
2018-10-01T02:58:47.628Z,11.30
2018-10-01T03:02:21.079Z,12.17
2018-10-01T03:05:54.275Z,12.00
2018-10-01T03:09:27.503Z,13.70
2018-10-01T03:13:00.706Z,13.20
2018-10-01T03:16:33.933Z,12.00
2018-10-01T03:20:07.735Z,12.00
2018-10-01T03:23:40.955Z,12.20
2018-10-01T03:27:14.172Z,12.90
2018-10-01T03:30:47.384Z,12.37
2018-10-01T03:34:20.579Z,12.17
2018-10-01T03:37:53.900Z,13.57
2018-10-01T03:41:27.115Z,12.90
2018-10-01T03:45:00.339Z,12.13
2018-10-01T03:48:33.560Z,10.97
2018-10-01T03:52:06.778Z,12.00
2018-10-01T03:55:39.984Z,10.80
2018-10-01T03:59:13.193Z,11.17
2018-10-01T04:02:46.445Z,10.87
2018-10-01T04:06:19.664Z,10.60
2018-10-01T04:09:52.917Z,10.50
2018-10-01T04:13:26.119Z,11.10
2018-10-01T04:16:59.379Z,11.57
2018-10-01T04:20:32.580Z,10.17
2018-10-01T04:24:05.813Z,10.83
2018-10-01T04:27:39.024Z,9.77
2018-10-01T04:31:12.243Z,11.23
2018-10-01T04:34:45.447Z,9.97
2018-10-01T04:38:18.676Z,11.53
2018-10-01T04:41:51.967Z,11.00
2018-10-01T04:45:25.187Z,11.00
2018-10-01T04:48:58.399Z,11.77
2018-10-01T04:52:31.631Z,10.93
2018-10-01T04:56:04.829Z,11.33
2018-10-01T04:59:38.055Z,12.80
2018-10-01T05:03:11.260Z,11.40
2018-10-01T05:06:44.476Z,12.90
2018-10-01T05:10:17.693Z,13.93
2018-10-01T05:13:50.930Z,11.20
2018-10-01T05:17:24.151Z,10.43
2018-10-01T05:20:57.411Z,12.43
2018-10-01T05:24:31.318Z,11.63
2018-10-01T05:28:04.556Z,11.70
2018-10-01T05:31:37.920Z,11.87
2018-10-01T05:35:11.159Z,13.20
2018-10-01T05:38:44.404Z,10.80
2018-10-01T05:42:17.643Z,12.80
2018-10-01T05:45:50.869Z,11.47
2018-10-01T05:49:24.621Z,10.60
2018-10-01T05:52:58.168Z,13.00
2018-10-01T05:56:31.424Z,11.97
2018-10-01T06:00:04.704Z,12.37
2018-10-01T06:03:37.947Z,12.27
2018-10-01T06:07:11.172Z,13.20
2018-10-01T06:10:44.593Z,12.70
2018-10-01T06:14:17.841Z,12.03
2018-10-01T06:17:51.096Z,10.80
2018-10-01T06:21:24.310Z,10.00
2018-10-01T06:24:57.596Z,10.47
2018-10-01T06:28:30.819Z,8.80
2018-10-01T06:32:04.074Z,9.70
2018-10-01T06:35:37.983Z,9.50
2018-10-01T06:39:12.020Z,8.83
2018-10-01T06:42:45.229Z,8.57
2018-10-01T06:46:18.461Z,8.80
2018-10-01T06:49:51.708Z,7.90
2018-10-01T06:53:24.931Z,8.40
2018-10-01T06:56:58.147Z,8.87
2018-10-01T07:00:31.380Z,8.57
2018-10-01T07:04:04.606Z,8.70
2018-10-01T07:07:37.871Z,8.70
2018-10-01T07:11:11.168Z,8.40
2018-10-01T07:14:44.342Z,8.97
2018-10-01T07:18:17.576Z,9.13
2018-10-01T07:21:50.788Z,8.80
2018-10-01T07:25:24.015Z,8.77
2018-10-01T07:28:57.387Z,11.50
2018-10-01T07:32:30.612Z,8.57
2018-10-01T07:36:05.031Z,10.70
2018-10-01T07:39:38.248Z,9.90
2018-10-01T07:43:11.470Z,8.60
2018-10-01T07:46:44.739Z,9.23
2018-10-01T07:50:17.948Z,10.23
2018-10-01T07:53:51.351Z,10.17
2018-10-01T07:57:25.128Z,9.33
2018-10-01T08:00:58.319Z,10.97
2018-10-01T08:04:31.530Z,9.43
2018-10-01T08:08:04.808Z,11.50
2018-10-01T08:11:38.024Z,10.33
2018-10-01T08:15:11.248Z,11.63
2018-10-01T08:18:44.562Z,12.50
2018-10-01T08:22:17.796Z,11.10
2018-10-01T08:25:51.044Z,12.10
2018-10-01T08:29:24.373Z,10.87
2018-10-01T08:32:57.580Z,10.10
2018-10-01T08:36:30.796Z,11.67
2018-10-01T08:40:04.041Z,10.83
2018-10-01T08:43:37.246Z,10.73
2018-10-01T08:47:10.488Z,11.10
2018-10-01T08:51:16.217Z,11.63
2018-10-01T08:54:49.898Z,11.73
2018-10-01T08:58:23.139Z,12.40
2018-10-01T09:01:56.608Z,11.30
2018-10-01T09:05:29.856Z,12.00
2018-10-01T09:09:03.147Z,13.97
2018-10-01T09:12:36.362Z,13.93
2018-10-01T09:16:09.643Z,13.03
2018-10-01T09:19:42.865Z,12.77
2018-10-01T09:23:16.221Z,13.57
2018-10-01T09:26:49.368Z,12.77
2018-10-01T09:30:22.579Z,14.23
2018-10-01T09:33:55.818Z,14.33
2018-10-01T09:37:29.031Z,15.30
2018-10-01T09:41:02.268Z,14.63
2018-10-01T09:44:35.571Z,15.37
2018-10-01T09:48:08.829Z,13.53
2018-10-01T09:51:42.000Z,13.03
2018-10-01T09:55:15.279Z,15.20
2018-10-01T09:58:48.495Z,15.37
2018-10-01T10:02:21.740Z,15.33
2018-10-01T10:05:55.728Z,17.70
2018-10-01T10:09:28.955Z,15.73
2018-10-01T10:13:02.243Z,16.60
2018-10-01T10:16:35.548Z,16.93
2018-10-01T10:20:08.775Z,17.53
2018-10-01T10:23:41.960Z,15.70
2018-10-01T10:27:15.211Z,15.37
2018-10-01T10:30:48.487Z,16.77
2018-10-01T10:34:21.760Z,14.70
2018-10-01T10:37:55.218Z,16.00
2018-10-01T10:41:28.451Z,16.37
2018-10-01T10:45:01.680Z,14.87
2018-10-01T10:48:34.900Z,14.83
2018-10-01T10:52:08.136Z,14.33
2018-10-01T10:55:41.362Z,11.77
2018-10-01T10:59:14.573Z,11.23
2018-10-01T11:02:47.795Z,10.50
2018-10-01T11:06:21.018Z,10.10
2018-10-01T11:09:54.251Z,9.87
2018-10-01T11:13:27.500Z,9.80
2018-10-01T11:17:00.718Z,10.80
2018-10-01T11:20:34.066Z,8.80
2018-10-01T11:24:07.227Z,11.03
2018-10-01T11:27:40.537Z,8.70
2018-10-01T11:31:13.719Z,9.90
2018-10-01T11:34:46.981Z,10.43
2018-10-01T11:38:20.185Z,9.87
2018-10-01T11:41:53.850Z,9.83
2018-10-01T11:45:27.079Z,9.23
2018-10-01T11:49:00.317Z,7.73
2018-10-01T11:52:33.549Z,8.00
2018-10-01T11:56:06.772Z,8.40
2018-10-01T11:59:39.998Z,8.13
2018-10-01T12:03:13.315Z,7.67
2018-10-01T12:06:46.453Z,7.43
2018-10-01T12:10:19.750Z,6.60
2018-10-01T12:13:52.917Z,5.80
2018-10-01T12:17:26.168Z,6.10
2018-10-01T12:20:59.429Z,4.90
2018-10-01T12:24:32.631Z,4.33
2018-10-01T12:28:05.991Z,5.07
2018-10-01T12:31:39.211Z,4.80
2018-10-01T12:35:12.509Z,4.23
2018-10-01T12:38:45.667Z,4.97
2018-10-01T12:42:18.892Z,3.47
2018-10-01T12:45:52.122Z,5.33
2018-10-01T12:49:25.358Z,3.80
2018-10-01T12:52:58.646Z,3.70
2018-10-01T12:56:31.868Z,3.40
2018-10-01T13:00:05.095Z,4.30
2018-10-01T13:03:38.325Z,3.63
2018-10-01T13:07:11.546Z,2.80
2018-10-01T13:10:44.787Z,3.90
2018-10-01T13:14:18.032Z,3.17
2018-10-01T13:17:51.276Z,3.20
2018-10-01T13:21:24.485Z,3.30
2018-10-01T13:24:57.788Z,2.87
2018-10-01T13:28:30.961Z,3.27
2018-10-01T13:32:04.218Z,2.50
2018-10-01T13:35:37.416Z,2.90
2018-10-01T13:39:12.132Z,2.43
2018-10-01T13:42:45.473Z,2.30
2018-10-01T13:46:18.590Z,2.37
2018-10-01T13:49:51.811Z,2.80
2018-10-01T13:53:25.027Z,3.63
2018-10-01T13:56:58.263Z,2.93
2018-10-01T14:00:31.485Z,4.47
2018-10-01T14:04:04.734Z,4.87
2018-10-01T14:07:38.093Z,2.30
2018-10-01T14:11:11.250Z,1.93
2018-10-01T14:14:44.469Z,2.40
2018-10-01T14:18:17.706Z,2.37
2018-10-01T14:21:50.924Z,1.97
2018-10-01T14:25:24.217Z,2.30
2018-10-01T14:28:57.426Z,1.80
2018-10-01T14:32:30.670Z,1.90
2018-10-01T14:36:03.897Z,2.10
2018-10-01T14:39:37.108Z,2.60
2018-10-01T14:43:10.405Z,2.07
2018-10-01T14:46:43.572Z,2.50
2018-10-01T14:50:16.808Z,1.80
2018-10-01T14:53:50.032Z,2.03
2018-10-01T14:57:23.260Z,1.80
2018-10-01T15:00:56.503Z,2.20
2018-10-01T15:04:29.703Z,1.30
2018-10-01T15:08:02.933Z,2.50
2018-10-01T15:11:36.165Z,2.37
2018-10-01T15:15:09.384Z,2.13
2018-10-01T15:18:42.621Z,1.80
2018-10-01T15:22:15.911Z,2.10
2018-10-01T15:25:49.118Z,2.30
2018-10-01T15:29:22.341Z,1.57
2018-10-01T15:32:55.560Z,2.00
2018-10-01T15:36:29.019Z,2.00
2018-10-01T15:40:02.324Z,1.63
2018-10-01T15:43:35.660Z,2.10
2018-10-01T15:47:08.932Z,2.13
2018-10-01T15:50:42.156Z,1.93
2018-10-01T15:54:16.392Z,2.60
2018-10-01T15:57:49.625Z,2.80
2018-10-01T16:01:22.920Z,2.40
2018-10-01T16:04:56.315Z,2.83
2018-10-01T16:08:29.586Z,2.37
2018-10-01T16:12:02.803Z,3.20
2018-10-01T16:15:36.029Z,3.13
2018-10-01T16:19:09.245Z,3.30
2018-10-01T16:22:42.473Z,3.33
2018-10-01T16:26:15.682Z,3.10
2018-10-01T16:29:48.918Z,2.80
2018-10-01T16:33:22.157Z,3.40
2018-10-01T16:36:55.672Z,3.57
2018-10-01T16:40:29.444Z,3.80
2018-10-01T16:44:02.931Z,3.73
2018-10-01T16:47:36.226Z,4.53
2018-10-01T16:51:09.981Z,5.10
2018-10-01T16:54:43.195Z,5.97
2018-10-01T16:58:16.475Z,5.80
2018-10-01T17:01:49.731Z,6.00
2018-10-01T17:05:22.955Z,6.90
2018-10-01T17:08:56.180Z,6.47
2018-10-01T17:12:29.451Z,7.37
2018-10-01T17:16:02.689Z,7.13
2018-10-01T17:19:35.946Z,7.20
2018-10-01T17:23:09.144Z,7.17
2018-10-01T17:26:42.381Z,7.60
2018-10-01T17:30:15.640Z,9.00
2018-10-01T17:33:48.873Z,7.90
2018-10-01T17:37:22.118Z,8.00
2018-10-01T17:40:55.319Z,8.70
2018-10-01T17:44:28.553Z,7.83
2018-10-01T17:48:01.784Z,8.60
2018-10-01T17:51:35.024Z,7.43
2018-10-01T17:55:08.232Z,7.80
2018-10-01T17:58:42.300Z,7.20
2018-10-01T18:02:15.500Z,6.57
2018-10-01T18:05:49.396Z,6.80
2018-10-01T18:09:22.620Z,7.20
2018-10-01T18:12:56.844Z,7.93
2018-10-01T18:16:30.075Z,6.80
2018-10-01T18:20:03.321Z,6.50
2018-10-01T18:23:37.179Z,7.10
2018-10-01T18:27:10.413Z,6.47
2018-10-01T18:30:43.623Z,5.97
2018-10-01T18:38:12.883Z,6.10
2018-10-01T18:41:46.730Z,6.20
2018-10-01T18:45:19.947Z,6.93
2018-10-01T18:48:53.244Z,5.47
2018-10-01T18:52:26.492Z,5.00
2018-10-01T18:55:59.760Z,4.17
2018-10-01T18:59:33.101Z,4.20
2018-10-01T19:03:06.445Z,4.17
2018-10-01T19:06:39.709Z,5.70
2018-10-01T19:10:12.978Z,11.23
2018-10-01T19:13:46.223Z,2.47
2018-10-01T19:17:19.465Z,1.90
2018-10-01T19:20:52.864Z,1.77
2018-10-01T19:24:26.500Z,2.50
2018-10-01T19:27:59.683Z,3.67
2018-10-01T19:31:33.141Z,3.00
2018-10-01T19:35:06.644Z,2.03
2018-10-01T19:38:39.899Z,5.13
2018-10-01T19:42:13.212Z,1.93
2018-10-01T19:45:46.496Z,1.37
2018-10-01T19:49:19.943Z,1.23
2018-10-01T19:52:53.355Z,1.33
2018-10-01T19:56:26.540Z,1.50
2018-10-01T20:00:00.143Z,1.37
2018-10-01T20:03:33.369Z,1.43
2018-10-01T20:07:07.008Z,1.63
2018-10-01T20:10:40.246Z,1.20
2018-10-01T20:14:13.503Z,1.00
2018-10-01T20:17:47.374Z,1.40
2018-10-01T20:21:20.647Z,1.50
2018-10-01T20:24:53.928Z,1.63
2018-10-01T20:28:27.396Z,1.50
2018-10-01T20:32:00.463Z,1.77
2018-10-01T20:35:33.758Z,1.53
2018-10-01T20:39:08.481Z,1.53
2018-10-01T20:42:41.729Z,2.07
2018-10-01T20:46:14.985Z,1.97
2018-10-01T20:49:48.296Z,1.40
2018-10-01T20:53:21.668Z,1.40
2018-10-01T20:56:54.794Z,1.20
2018-10-01T21:00:28.191Z,1.23
2018-10-01T21:04:01.571Z,1.27
2018-10-01T21:07:35.045Z,1.00
2018-10-01T21:11:08.504Z,1.30
2018-10-01T21:14:41.766Z,1.40
2018-10-01T21:18:15.056Z,1.63
2018-10-01T21:21:48.338Z,1.60
2018-10-01T21:25:21.821Z,1.47
2018-10-01T21:28:55.085Z,1.20
2018-10-01T21:32:28.445Z,1.30
2018-10-01T21:36:01.829Z,1.40
2018-10-01T21:40:11.799Z,1.37
2018-10-01T21:43:45.045Z,1.67
2018-10-01T21:47:18.288Z,1.83
2018-10-01T21:50:51.520Z,2.00
2018-10-01T21:54:24.752Z,1.67
2018-10-01T21:57:58.001Z,1.53
2018-10-01T22:01:36.641Z,2.10
2018-10-01T22:05:09.959Z,1.53
2018-10-01T22:08:43.412Z,2.67
2018-10-01T22:12:16.646Z,1.67
2018-10-01T22:15:49.894Z,1.93
2018-10-01T22:19:23.121Z,2.17
2018-10-01T22:22:56.368Z,2.20
2018-10-01T22:26:29.604Z,1.53
2018-10-01T22:30:02.836Z,1.80
2018-10-01T22:33:36.055Z,1.57
2018-10-01T22:37:09.280Z,1.60
2018-10-01T22:40:42.508Z,1.97
2018-10-01T22:44:15.785Z,2.60
2018-10-01T22:47:49.448Z,2.00
2018-10-01T22:51:22.672Z,3.43
2018-10-01T22:54:55.907Z,6.93
2018-10-01T22:58:29.141Z,2.20
2018-10-01T23:02:02.368Z,1.80
2018-10-01T23:05:35.609Z,2.20
2018-10-01T23:09:09.331Z,1.77
2018-10-01T23:12:42.552Z,2.20
2018-10-01T23:16:15.780Z,2.70
2018-10-01T23:19:49.015Z,2.20
2018-10-01T23:23:22.247Z,2.40
2018-10-01T23:26:55.468Z,2.47
2018-10-01T23:30:28.696Z,2.90
2018-10-01T23:34:01.936Z,2.00
2018-10-01T23:37:35.157Z,2.53
2018-10-01T23:41:08.388Z,2.73
2018-10-01T23:44:41.616Z,2.57
2018-10-01T23:48:14.848Z,2.37
2018-10-01T23:51:48.080Z,2.27
2018-10-01T23:55:21.312Z,2.37
2018-10-01T23:58:54.553Z,3.17
